createdAt,value
2023-04-09T00:02:23.550Z,17.77
2023-04-09T00:04:51.552Z,17.93
2023-04-09T00:07:19.502Z,17.40
2023-04-09T00:09:48.763Z,13.03
2023-04-09T00:12:16.727Z,15.70
2023-04-09T00:14:44.701Z,17.67
2023-04-09T00:17:12.881Z,16.17
2023-04-09T00:19:40.840Z,14.83
2023-04-09T00:22:08.715Z,16.03
2023-04-09T00:24:36.588Z,15.70
2023-04-09T00:27:05.904Z,15.07
2023-04-09T00:29:33.848Z,13.73
2023-04-09T00:32:01.864Z,16.57
2023-04-09T00:34:29.791Z,14.37
2023-04-09T00:36:57.835Z,13.93
2023-04-09T00:39:25.848Z,15.70
2023-04-09T00:41:58.068Z,14.10
2023-04-09T00:44:27.337Z,13.93
2023-04-09T00:46:55.471Z,17.50
2023-04-09T00:49:24.886Z,16.63
2023-04-09T00:51:52.776Z,13.33
2023-04-09T00:54:20.713Z,13.67
2023-04-09T00:56:48.678Z,14.73
2023-04-09T00:59:16.918Z,14.80
2023-04-09T01:01:46.312Z,13.57
2023-04-09T01:04:14.294Z,16.37
2023-04-09T01:06:45.413Z,14.33
2023-04-09T01:09:16.607Z,16.70
2023-04-09T01:11:46.411Z,14.73
2023-04-09T01:14:17.402Z,18.90
2023-04-09T01:16:49.004Z,18.80
2023-04-09T01:19:30.810Z,17.17
2023-04-09T01:21:58.756Z,19.20
2023-04-09T01:24:33.278Z,16.77
2023-04-09T01:27:05.074Z,14.17
2023-04-09T01:29:35.783Z,16.53
2023-04-09T01:32:03.760Z,12.50
2023-04-09T01:34:31.703Z,15.13
2023-04-09T01:37:01.040Z,18.30
2023-04-09T01:39:28.951Z,18.37
2023-04-09T01:41:58.017Z,21.40
2023-04-09T01:44:26.266Z,15.87
2023-04-09T01:46:55.647Z,14.30
2023-04-09T01:49:23.568Z,16.57
2023-04-09T01:51:51.624Z,19.70
2023-04-09T01:54:19.517Z,13.83
2023-04-09T01:56:47.945Z,20.70
2023-04-09T01:59:15.945Z,13.80
2023-04-09T02:01:46.755Z,17.87
2023-04-09T02:04:19.077Z,17.83
2023-04-09T02:06:49.859Z,16.90
2023-04-09T02:09:18.194Z,14.10
2023-04-09T02:11:46.166Z,12.03
2023-04-09T02:14:14.017Z,11.37
2023-04-09T02:16:42.669Z,15.23
2023-04-09T02:19:10.552Z,18.73
2023-04-09T02:21:39.839Z,16.90
2023-04-09T02:24:07.888Z,16.30
2023-04-09T02:26:35.884Z,14.20
2023-04-09T02:29:03.826Z,14.83
2023-04-09T02:31:31.776Z,20.00
2023-04-09T02:33:59.698Z,12.87
2023-04-09T02:36:27.737Z,15.60
2023-04-09T02:38:57.035Z,17.23
2023-04-09T02:41:25.985Z,14.07
2023-04-09T02:43:53.887Z,17.93
2023-04-09T02:46:22.223Z,18.57
2023-04-09T02:48:50.506Z,18.73
2023-04-09T02:51:18.695Z,16.83
2023-04-09T02:53:46.674Z,17.07
2023-04-09T02:56:15.939Z,16.63
2023-04-09T02:58:43.881Z,17.23
2023-04-09T03:01:11.795Z,18.80
2023-04-09T03:03:42.464Z,16.17
2023-04-09T03:06:10.579Z,14.77
2023-04-09T03:08:38.461Z,15.67
2023-04-09T03:11:06.437Z,15.07
2023-04-09T03:13:36.404Z,16.83
2023-04-09T03:16:04.486Z,17.27
2023-04-09T03:18:32.384Z,16.73
2023-04-09T03:21:00.276Z,18.43
2023-04-09T03:23:28.171Z,16.23
2023-04-09T03:26:02.320Z,11.27
2023-04-09T03:28:30.489Z,18.73
2023-04-09T03:30:59.838Z,14.57
2023-04-09T03:33:27.746Z,15.47
2023-04-09T03:35:55.753Z,18.97
2023-04-09T03:38:23.638Z,20.73
2023-04-09T03:40:51.514Z,19.57
2023-04-09T03:43:19.497Z,18.90
2023-04-09T03:45:47.380Z,16.60
2023-04-09T03:48:16.709Z,17.93
2023-04-09T03:50:44.608Z,16.57
2023-04-09T03:53:12.503Z,17.53
2023-04-09T03:55:40.742Z,19.23
2023-04-09T03:58:08.633Z,17.13
2023-04-09T04:00:36.541Z,19.57
2023-04-09T04:03:04.728Z,20.40
2023-04-09T04:05:34.108Z,20.97
2023-04-09T04:08:01.958Z,18.13
2023-04-09T04:10:29.892Z,19.63
2023-04-09T04:12:57.792Z,25.17
2023-04-09T04:15:26.073Z,18.47
2023-04-09T04:17:54.061Z,21.73
2023-04-09T04:20:22.050Z,24.63
2023-04-09T04:22:51.312Z,21.73
2023-04-09T04:25:19.290Z,22.27
2023-04-09T04:27:47.202Z,26.03
2023-04-09T04:30:15.202Z,22.27
2023-04-09T04:32:43.151Z,17.07
2023-04-09T04:35:11.073Z,19.13
2023-04-09T04:37:38.992Z,19.73
2023-04-09T04:40:09.653Z,21.23
2023-04-09T04:42:37.520Z,23.80
2023-04-09T04:45:05.987Z,18.37
2023-04-09T04:47:33.924Z,22.93
2023-04-09T04:50:01.853Z,28.43
2023-04-09T04:52:29.775Z,27.27
2023-04-09T04:54:57.985Z,22.53
2023-04-09T04:57:27.239Z,27.00
2023-04-09T04:59:55.171Z,31.20
2023-04-09T05:02:23.254Z,30.47
2023-04-09T05:04:51.209Z,30.13
2023-04-09T05:07:19.223Z,28.63
2023-04-09T05:09:47.188Z,26.47
2023-04-09T05:12:17.922Z,26.07
2023-04-09T05:14:47.236Z,29.57
2023-04-09T05:17:15.612Z,28.33
2023-04-09T05:19:43.466Z,34.40
2023-04-09T05:22:11.406Z,28.03
2023-04-09T05:24:39.395Z,32.80
2023-04-09T05:27:07.273Z,31.70
2023-04-09T05:29:36.463Z,27.10
2023-04-09T05:32:06.944Z,32.00
2023-04-09T05:34:34.823Z,36.10
2023-04-09T05:37:02.754Z,28.87
2023-04-09T05:39:31.061Z,22.37
2023-04-09T05:41:58.947Z,35.87
2023-04-09T05:44:26.832Z,28.00
2023-04-09T05:46:55.108Z,32.40
2023-04-09T05:49:24.414Z,33.27
2023-04-09T05:51:52.410Z,33.43
2023-04-09T05:54:20.323Z,25.70
2023-04-09T05:56:48.386Z,34.07
2023-04-09T05:59:16.296Z,23.97
2023-04-09T06:01:44.406Z,22.57
2023-04-09T06:04:12.616Z,27.20
2023-04-09T06:06:41.975Z,21.97
2023-04-09T06:09:09.873Z,21.23
2023-04-09T06:11:38.428Z,24.80
2023-04-09T06:14:06.812Z,23.70
2023-04-09T06:16:34.949Z,24.47
2023-04-09T06:19:03.039Z,25.77
2023-04-09T06:21:31.208Z,21.60
2023-04-09T06:24:00.463Z,30.53
2023-04-09T06:26:28.405Z,31.10
2023-04-09T06:28:56.308Z,28.97
2023-04-09T06:31:24.258Z,27.07
2023-04-09T06:33:52.269Z,26.53
2023-04-09T06:36:20.789Z,29.53
2023-04-09T06:38:49.021Z,28.87
2023-04-09T06:41:18.401Z,29.40
2023-04-09T06:43:46.442Z,24.30
2023-04-09T06:46:17.319Z,28.30
2023-04-09T06:48:45.388Z,29.80
2023-04-09T06:51:13.462Z,34.80
2023-04-09T06:53:41.525Z,29.13
2023-04-09T06:56:09.550Z,26.47
2023-04-09T06:58:39.477Z,27.07
2023-04-09T07:01:08.281Z,31.33
2023-04-09T07:03:36.412Z,32.87
2023-04-09T07:06:04.772Z,30.40
2023-04-09T07:08:32.674Z,32.87
2023-04-09T07:11:00.734Z,26.40
2023-04-09T07:16:02.828Z,24.83
2023-04-09T07:18:31.782Z,27.30
2023-04-09T07:21:00.190Z,32.10
2023-04-09T07:23:28.212Z,29.03
2023-04-09T07:25:56.224Z,32.97
2023-04-09T07:28:24.176Z,32.73
2023-04-09T07:30:52.830Z,35.70
2023-04-09T07:33:22.074Z,32.47
2023-04-09T07:35:50.010Z,28.47
2023-04-09T07:38:17.996Z,25.80
2023-04-09T07:40:46.308Z,31.20
2023-04-09T07:43:14.454Z,36.10
2023-04-09T07:45:42.442Z,36.43
2023-04-09T07:48:10.469Z,31.43
2023-04-09T07:50:39.760Z,34.43
2023-04-09T07:53:07.715Z,31.57
2023-04-09T07:55:35.632Z,35.20
2023-04-09T07:58:04.184Z,33.27
2023-04-09T08:00:32.063Z,36.23
2023-04-09T08:03:00.374Z,28.23
2023-04-09T08:05:29.022Z,31.93
2023-04-09T08:07:58.792Z,31.67
2023-04-09T08:10:26.674Z,36.20
2023-04-09T08:12:54.721Z,28.00
2023-04-09T08:15:22.851Z,28.97
2023-04-09T08:17:50.780Z,30.90
2023-04-09T08:20:18.866Z,28.23
2023-04-09T08:22:49.840Z,31.57
2023-04-09T08:25:19.230Z,28.00
2023-04-09T08:27:47.190Z,39.23
2023-04-09T08:30:16.842Z,25.73
2023-04-09T08:32:45.911Z,25.90
2023-04-09T08:35:13.992Z,31.90
2023-04-09T08:37:41.963Z,32.17
2023-04-09T08:40:11.692Z,34.03
2023-04-09T08:42:42.710Z,24.83
2023-04-09T08:45:11.764Z,30.07
2023-04-09T08:47:40.059Z,27.83
2023-04-09T08:50:09.064Z,26.73
2023-04-09T08:52:37.470Z,35.13
2023-04-09T08:55:06.524Z,28.97
2023-04-09T08:57:38.715Z,56.53
2023-04-09T09:00:09.432Z,40.80
2023-04-09T09:02:38.755Z,31.60
2023-04-09T09:05:07.499Z,27.83
2023-04-09T09:07:35.498Z,21.90
2023-04-09T09:10:04.521Z,25.90
2023-04-09T09:12:33.495Z,22.30
2023-04-09T09:15:01.335Z,26.57
2023-04-09T09:17:30.691Z,27.93
2023-04-09T09:19:58.806Z,23.83
2023-04-09T09:22:30.376Z,23.93
2023-04-09T09:24:59.010Z,24.70
2023-04-09T09:27:36.469Z,30.47
2023-04-09T09:30:05.878Z,23.93
2023-04-09T09:32:35.622Z,18.67
2023-04-09T09:35:04.681Z,23.90
2023-04-09T09:37:32.713Z,22.90
2023-04-09T09:40:01.040Z,17.00
2023-04-09T09:42:29.182Z,22.97
2023-04-09T09:44:57.368Z,23.47
2023-04-09T09:47:27.954Z,14.77
2023-04-09T09:49:57.603Z,19.40
2023-04-09T09:52:26.983Z,17.67
2023-04-09T09:54:55.019Z,22.60
2023-04-09T09:57:24.235Z,20.70
2023-04-09T09:59:54.862Z,17.17
2023-04-09T10:02:24.716Z,37.17
2023-04-09T10:04:53.825Z,16.40
2023-04-09T10:07:24.438Z,18.97
2023-04-09T10:09:52.689Z,17.67
2023-04-09T10:12:22.542Z,15.47
2023-04-09T10:14:50.539Z,16.53
2023-04-09T10:17:18.869Z,15.73
2023-04-09T10:19:48.600Z,18.30
2023-04-09T10:22:19.348Z,17.07
2023-04-09T10:24:49.226Z,15.97
2023-04-09T10:27:18.330Z,17.00
2023-04-09T10:29:47.976Z,19.87
2023-04-09T10:32:21.233Z,15.43
2023-04-09T10:34:49.329Z,15.53
2023-04-09T10:37:18.064Z,11.87
2023-04-09T10:39:47.362Z,9.73
2023-04-09T10:42:22.076Z,11.33
2023-04-09T10:45:08.582Z,6.83
2023-04-09T10:47:37.177Z,8.23
2023-04-09T10:50:21.648Z,8.13
2023-04-09T10:52:53.924Z,13.30
2023-04-09T10:55:31.736Z,5.23
2023-04-09T10:58:01.038Z,12.67
2023-04-09T11:00:29.127Z,12.90
2023-04-09T11:03:24.596Z,8.33
2023-04-09T11:06:00.245Z,8.77
2023-04-09T11:08:30.243Z,10.03
2023-04-09T11:11:01.052Z,7.23
2023-04-09T11:13:31.100Z,6.17
2023-04-09T11:16:00.308Z,7.27
2023-04-09T11:18:29.401Z,6.77
2023-04-09T11:20:58.304Z,3.97
2023-04-09T11:23:26.557Z,8.93
2023-04-09T11:25:54.788Z,3.80
2023-04-09T11:28:22.914Z,4.23
2023-04-09T11:30:53.176Z,3.23
2023-04-09T11:33:21.463Z,4.73
2023-04-09T11:35:49.653Z,7.47
2023-04-09T11:38:17.587Z,3.07
2023-04-09T11:40:49.513Z,2.83
2023-04-09T11:43:18.173Z,5.47
2023-04-09T11:45:47.641Z,3.10
2023-04-09T11:48:18.234Z,4.60
2023-04-09T11:50:46.640Z,5.87
2023-04-09T11:53:21.186Z,5.30
2023-04-09T11:55:50.689Z,4.10
2023-04-09T11:58:18.861Z,6.67
2023-04-09T12:00:46.843Z,5.77
2023-04-09T12:03:17.042Z,4.17
2023-04-09T12:05:50.597Z,4.20
2023-04-09T12:08:19.174Z,3.13
2023-04-09T12:10:47.213Z,2.17
2023-04-09T12:13:16.743Z,3.07
2023-04-09T12:15:44.938Z,2.80
2023-04-09T12:18:14.015Z,4.67
2023-04-09T12:20:44.623Z,2.70
2023-04-09T12:23:13.000Z,2.63
2023-04-09T12:25:41.991Z,3.00
2023-04-09T12:28:10.822Z,5.83
2023-04-09T12:30:41.906Z,2.70
2023-04-09T12:33:11.195Z,3.00
2023-04-09T12:35:40.040Z,3.97
2023-04-09T12:38:09.383Z,6.83
2023-04-09T12:40:37.349Z,2.30
2023-04-09T12:43:05.472Z,2.30
2023-04-09T12:45:33.682Z,3.03
2023-04-09T12:48:01.795Z,2.80
2023-04-09T12:50:29.910Z,3.20
2023-04-09T12:52:57.999Z,3.10
2023-04-09T12:55:27.944Z,3.23
2023-04-09T12:57:56.188Z,3.33
2023-04-09T13:00:24.679Z,3.97
2023-04-09T13:02:52.983Z,5.93
2023-04-09T13:05:20.982Z,5.30
2023-04-09T13:07:50.529Z,3.43
2023-04-09T13:10:18.527Z,6.20
2023-04-09T13:12:47.874Z,3.00
2023-04-09T13:15:15.857Z,3.23
2023-04-09T13:17:43.759Z,3.60
2023-04-09T13:20:12.527Z,3.03
2023-04-09T13:22:40.819Z,4.87
2023-04-09T13:25:09.804Z,3.60
2023-04-09T13:27:37.856Z,3.23
2023-04-09T13:30:08.758Z,4.67
2023-04-09T13:32:36.739Z,5.03
2023-04-09T13:35:04.808Z,2.63
2023-04-09T13:37:32.760Z,2.50
2023-04-09T13:40:01.083Z,5.87
2023-04-09T13:42:29.118Z,2.50
2023-04-09T13:44:57.659Z,6.73
2023-04-09T13:47:27.461Z,5.67
2023-04-09T13:49:55.509Z,2.40
2023-04-09T13:52:24.624Z,2.40
2023-04-09T13:54:54.448Z,2.30
2023-04-09T13:57:22.433Z,2.60
2023-04-09T13:59:50.555Z,2.43
2023-04-09T14:02:19.478Z,3.50
2023-04-09T14:04:49.059Z,2.40
2023-04-09T14:07:17.087Z,5.23
2023-04-09T14:09:45.082Z,2.10
2023-04-09T14:12:12.997Z,2.63
2023-04-09T14:14:41.145Z,2.47
2023-04-09T14:17:09.256Z,3.20
2023-04-09T14:19:37.911Z,1.97
2023-04-09T14:22:07.408Z,2.37
2023-04-09T14:24:40.229Z,2.80
2023-04-09T14:27:08.747Z,3.93
2023-04-09T14:29:36.714Z,2.10
2023-04-09T14:32:04.672Z,2.63
2023-04-09T14:34:32.628Z,2.23
2023-04-09T14:37:00.623Z,2.17
2023-04-09T14:39:29.916Z,3.50
2023-04-09T14:41:57.855Z,5.03
2023-04-09T14:44:26.519Z,2.47
2023-04-09T14:46:56.283Z,2.33
2023-04-09T14:49:24.460Z,2.63
2023-04-09T14:51:52.459Z,4.23
2023-04-09T14:54:20.397Z,3.13
2023-04-09T14:56:50.625Z,2.40
2023-04-09T14:59:19.199Z,2.43
2023-04-09T15:01:47.256Z,7.33
2023-04-09T15:04:15.782Z,3.80
2023-04-09T15:06:43.827Z,5.47
2023-04-09T15:09:12.185Z,5.53
2023-04-09T15:11:40.918Z,3.60
2023-04-09T15:14:10.362Z,5.83
2023-04-09T15:16:38.418Z,5.67
2023-04-09T15:19:06.544Z,8.23
2023-04-09T15:21:35.895Z,4.33
2023-04-09T15:24:06.075Z,5.47
2023-04-09T15:26:35.372Z,4.63
2023-04-09T15:29:04.284Z,5.47
2023-04-09T15:31:33.877Z,5.37
2023-04-09T15:34:02.169Z,4.87
2023-04-09T15:36:31.584Z,3.30
2023-04-09T15:38:59.614Z,4.47
2023-04-09T15:41:27.679Z,5.33
2023-04-09T15:43:56.059Z,4.20
2023-04-09T15:46:24.208Z,5.57
2023-04-09T15:48:54.199Z,3.13
2023-04-09T15:51:23.968Z,5.70
2023-04-09T15:53:52.060Z,9.67
2023-04-09T15:56:20.353Z,3.53
2023-04-09T15:58:48.335Z,3.90
2023-04-09T16:01:17.393Z,4.33
2023-04-09T16:03:50.637Z,3.73
2023-04-09T16:06:20.173Z,5.00
2023-04-09T16:08:48.202Z,4.30
2023-04-09T16:11:17.291Z,5.50
2023-04-09T16:13:45.289Z,7.33
2023-04-09T16:16:13.903Z,3.67
2023-04-09T16:18:42.605Z,4.30
2023-04-09T16:21:11.383Z,4.47
2023-04-09T16:23:41.015Z,9.77
2023-04-09T16:26:09.011Z,7.20
2023-04-09T16:28:37.078Z,12.73
2023-04-09T16:31:05.272Z,8.73
2023-04-09T16:33:33.251Z,4.90
2023-04-09T16:36:01.213Z,5.80
2023-04-09T16:38:29.789Z,4.93
2023-04-09T16:40:59.294Z,5.30
2023-04-09T16:43:27.358Z,6.40
2023-04-09T16:45:55.685Z,6.00
2023-04-09T16:48:24.062Z,8.60
2023-04-09T16:50:52.114Z,8.53
2023-04-09T16:53:20.685Z,8.17
2023-04-09T16:55:49.143Z,6.63
2023-04-09T16:58:19.191Z,6.23
2023-04-09T17:00:48.738Z,27.00
2023-04-09T17:03:17.875Z,27.07
2023-04-09T17:05:49.311Z,8.40
2023-04-09T17:08:17.526Z,7.40
2023-04-09T17:10:45.904Z,6.33
2023-04-09T17:13:14.480Z,9.47
2023-04-09T17:15:43.854Z,15.40
2023-04-09T17:18:11.805Z,6.63
2023-04-09T17:20:39.806Z,6.83
2023-04-09T17:23:08.718Z,6.53
2023-04-09T17:25:37.026Z,13.50
2023-04-09T17:28:06.155Z,9.37
2023-04-09T17:30:34.927Z,10.17
2023-04-09T17:33:04.518Z,7.80
2023-04-09T17:35:32.834Z,7.23
2023-04-09T17:38:01.360Z,11.63
2023-04-09T17:40:29.726Z,8.70
2023-04-09T17:42:57.710Z,9.53
2023-04-09T17:45:25.848Z,12.77
2023-04-09T17:47:54.148Z,12.90
2023-04-09T17:50:23.597Z,11.53
2023-04-09T17:52:51.645Z,11.53
2023-04-09T17:55:19.563Z,9.43
2023-04-09T17:57:47.716Z,10.37
2023-04-09T18:00:16.154Z,9.33
2023-04-09T18:02:45.235Z,8.43
2023-04-09T18:05:13.708Z,10.93
2023-04-09T18:07:43.232Z,13.33
2023-04-09T18:10:11.953Z,9.37
2023-04-09T18:12:39.938Z,12.77
2023-04-09T18:15:08.894Z,9.90
2023-04-09T18:17:36.792Z,9.03
2023-04-09T18:20:05.000Z,16.77
2023-04-09T18:22:32.953Z,9.40
2023-04-09T18:25:02.327Z,11.77
2023-04-09T18:27:30.268Z,13.83
2023-04-09T18:29:58.191Z,11.90
2023-04-09T18:32:26.779Z,8.80
2023-04-09T18:34:54.732Z,13.80
2023-04-09T18:37:22.758Z,13.67
2023-04-09T18:39:50.837Z,14.80
2023-04-09T18:42:20.157Z,12.67
2023-04-09T18:44:48.080Z,17.83
2023-04-09T18:47:16.499Z,14.53
2023-04-09T18:49:44.411Z,19.90
2023-04-09T18:52:12.350Z,11.47
2023-04-09T18:54:40.247Z,11.87
2023-04-09T18:57:08.762Z,17.37
2023-04-09T18:59:40.190Z,13.83
2023-04-09T19:02:08.174Z,12.60
2023-04-09T19:04:39.600Z,16.20
2023-04-09T19:07:12.969Z,10.87
2023-04-09T19:09:41.773Z,9.67
2023-04-09T19:12:09.697Z,11.43
2023-04-09T19:14:40.245Z,14.33
2023-04-09T19:17:08.486Z,12.80
2023-04-09T19:19:37.356Z,16.50
2023-04-09T19:22:05.252Z,18.63
2023-04-09T19:24:33.160Z,15.93
2023-04-09T19:27:04.670Z,10.77
2023-04-09T19:29:32.532Z,15.60
2023-04-09T19:32:01.866Z,11.10
2023-04-09T19:34:29.788Z,18.50
2023-04-09T19:36:57.868Z,10.87
2023-04-09T19:39:25.755Z,22.20
2023-04-09T19:41:53.665Z,18.33
2023-04-09T19:44:21.559Z,14.40
2023-04-09T19:46:49.547Z,18.50
2023-04-09T19:49:19.122Z,16.63
2023-04-09T19:51:47.075Z,19.27
2023-04-09T19:54:16.637Z,18.10
2023-04-09T19:56:44.560Z,13.37
2023-04-09T19:59:12.524Z,17.40
2023-04-09T20:01:40.539Z,14.83
2023-04-09T20:04:09.360Z,20.37
2023-04-09T20:06:38.667Z,19.43
2023-04-09T20:09:07.187Z,11.70
2023-04-09T20:11:35.407Z,16.50
2023-04-09T20:14:03.774Z,17.13
2023-04-09T20:16:31.754Z,24.10
2023-04-09T20:18:59.702Z,14.73
2023-04-09T20:21:28.025Z,16.57
2023-04-09T20:23:57.249Z,15.67
2023-04-09T20:26:25.126Z,18.47
2023-04-09T20:28:53.221Z,23.23
2023-04-09T20:31:21.493Z,9.83
2023-04-09T20:33:49.418Z,12.50
2023-04-09T20:36:17.687Z,15.13
2023-04-09T20:38:45.846Z,8.97
2023-04-09T20:41:15.127Z,8.50
2023-04-09T20:43:43.084Z,14.03
2023-04-09T20:46:11.015Z,16.63
2023-04-09T20:48:38.997Z,13.17
2023-04-09T20:51:09.760Z,11.13
2023-04-09T20:53:37.661Z,16.57
2023-04-09T20:56:06.048Z,8.90
2023-04-09T20:58:35.362Z,10.80
2023-04-09T21:01:05.302Z,11.60
2023-04-09T21:03:34.605Z,8.03
2023-04-09T21:06:02.780Z,8.50
2023-04-09T21:08:30.780Z,10.10
2023-04-09T21:10:58.663Z,9.97
2023-04-09T21:13:27.330Z,9.13
2023-04-09T21:15:57.836Z,4.80
2023-04-09T21:18:25.770Z,6.90
2023-04-09T21:20:53.690Z,8.90
2023-04-09T21:23:21.573Z,7.00
2023-04-09T21:25:49.464Z,5.77
2023-04-09T21:28:17.464Z,6.50
2023-04-09T21:30:45.422Z,5.53
2023-04-09T21:33:14.688Z,6.33
2023-04-09T21:35:42.611Z,6.63
2023-04-09T21:38:10.468Z,7.57
2023-04-09T21:40:38.387Z,7.17
2023-04-09T21:43:06.705Z,6.13
2023-04-09T21:45:34.576Z,3.93
2023-04-09T21:48:02.956Z,6.43
2023-04-09T21:50:32.663Z,4.90
2023-04-09T21:53:00.525Z,5.87
2023-04-09T21:55:28.435Z,2.23
2023-04-09T21:57:56.371Z,2.40
2023-04-09T22:00:24.402Z,3.30
2023-04-09T22:02:52.577Z,2.53
2023-04-09T22:05:20.831Z,2.13
2023-04-09T22:07:50.101Z,1.63
2023-04-09T22:10:17.969Z,2.03
2023-04-09T22:12:45.855Z,1.40
2023-04-09T22:15:13.800Z,1.60
2023-04-09T22:17:41.718Z,1.63
2023-04-09T22:20:10.367Z,1.23
2023-04-09T22:22:38.461Z,1.00
2023-04-09T22:25:08.650Z,2.33
2023-04-09T22:27:36.531Z,1.40
2023-04-09T22:30:04.582Z,1.40
2023-04-09T22:32:33.520Z,1.40
2023-04-09T22:35:01.574Z,3.13
2023-04-09T22:37:29.477Z,1.47
2023-04-09T22:39:57.365Z,1.50
2023-04-09T22:42:27.373Z,1.40
2023-04-09T22:44:55.380Z,1.20
2023-04-09T22:47:23.278Z,1.30
2023-04-09T22:49:54.867Z,1.60
2023-04-09T22:52:22.775Z,1.20
2023-04-09T22:54:50.684Z,3.23
2023-04-09T22:57:18.632Z,1.20
2023-04-09T22:59:47.905Z,1.33
2023-04-09T23:02:15.948Z,1.20
2023-04-09T23:04:44.130Z,1.07
2023-04-09T23:07:12.660Z,1.57
2023-04-09T23:09:40.951Z,1.40
2023-04-09T23:12:08.794Z,1.23
2023-04-09T23:14:36.685Z,1.03
2023-04-09T23:17:06.140Z,1.30
2023-04-09T23:19:34.017Z,1.37
2023-04-09T23:22:01.931Z,2.83
2023-04-09T23:24:29.904Z,1.40
2023-04-09T23:26:57.820Z,1.40
2023-04-09T23:29:26.276Z,1.43
2023-04-09T23:31:54.237Z,1.17
2023-04-09T23:34:23.669Z,1.30
2023-04-09T23:36:51.674Z,1.40
2023-04-09T23:39:19.634Z,2.17
2023-04-09T23:41:47.709Z,1.20
2023-04-09T23:44:15.595Z,1.63
2023-04-09T23:46:43.530Z,1.27
2023-04-09T23:49:11.502Z,1.93
2023-04-09T23:51:40.796Z,1.53
2023-04-09T23:54:08.704Z,1.20
2023-04-09T23:56:37.485Z,1.27
2023-04-09T23:59:05.402Z,4.47
